Terminal Aerodrome Forecast
Issued by NWS Shreveport, LA

Home | Current Version | Previous Version | Text Only | Print | Product List | Glossary On
Versions: 1 2 3 4 5 6 7 8 9 10 11 12 13 14
000
FTUS44 KSHV 270528
TAFTYR
TAF
KTYR 270528Z 2706/2806 VRB03KT P6SM BKN045 OVC150
     FM271000 VRB03KT 6SM BR BKN040 BKN100
      TEMPO 2710/2712 5SM -RA BR BKN015 BKN035
     FM271200 VRB03KT 4SM BR VCSH BKN025 BKN040 BKN070
     FM271500 07004KT P6SM BKN030 OVC100
     FM271700 09004KT P6SM BKN100
     FM280000 12005KT P6SM OVC100=

USA.gov is the U.S. government's official web portal to all federal, state and local government web resources and services.